You are listening to:
KJFK D-ATIS - New York, New York, United States

KJFK 241051Z 18017KT 1/2SM R04R/2600V3500FT BR OVC003 08/08 A2974 RMK AO2 SFC VIS 3/4 RAE00 SLP071 P0000 T00780078

If stream does not start automatically press the play button